Flight Track Log - Related Links

Times and Time Zones

All times are in EDT time to prevent confusion due to time zone crossing. See the SWA267 flight status page for this flight to view local times or setup timezone preferences in your user account.

Time Position Orientation Groundspeed Altitude Reporting Facility
EDT Latitude Longitude Course Direction KTS MPH feet Rate Location/Type
Sun 12:24:02 PM 36.9956 -76.1381 16° North 234 269 4,300  Level Washington Center
Sun 12:25:03 PM 37.0286 -76.2136 299° West 259 298 6,900 2,717 Climbing Washington Center
Sun 12:25:48 PM 37.0469 -76.2764 290° West 261 300 9,100 3,200 Climbing Washington Center
Sun 12:26:03 PM 37.0531 -76.2972 290° West 257 296 10,100 1,500 Climbing Washington Center
Sun 12:26:48 PM 37.0714 -76.3625 289° West 274 315 10,600 1,245 Climbing Washington Center
Sun 12:27:49 PM 37.1083 -76.4669 294° West 307 353 12,300 2,300 Climbing Washington Center
Sun 12:28:48 PM 37.1472 -76.5767 294° West 332 382 15,200 1,866 Climbing Washington Center
Sun 12:29:48 PM 37.1836 -76.6867 293° West 337 388 16,000 397 Climbing Washington Center
Sun 12:30:49 PM 37.2183 -76.7889 293° West 346 398 16,000  Level Washington Center
Sun 12:31:48 PM 37.2717 -76.8811 306° West 330 380 16,000  Level Washington Center
Sun 12:32:48 PM 37.3733 -76.9089 348° North 333 383 16,000  Level Washington Center
Sun 12:33:49 PM 37.4506 -76.9258 350° North 338 389 16,000  Level Washington Center
Sun 12:34:48 PM 37.5586 -76.9489 350° North 343 395 16,000  Level Washington Center
Sun 12:35:48 PM 37.6544 -76.9717 349° North 349 402 16,000  Level Washington Center
Sun 12:36:49 PM 37.7644 -76.9972 350° North 356 410 16,000  Level Washington Center
Sun 12:37:48 PM 37.8667 -77.0175 351° North 356 410 16,000  Level Washington Center
Sun 12:38:48 PM 37.9683 -77.0406 350° North 362 417 16,000  Level Washington Center
Sun 12:39:49 PM 38.0683 -77.0661 349° North 362 417 16,000  Level Washington Center
Sun 12:40:49 PM 38.1658 -77.0892 349° North 362 417 16,000  Level Washington Center
Sun 12:41:48 PM 38.2678 -77.1122 350° North 367 422 16,000 -252 Level Washington Center
Sun 12:42:48 PM 38.3572 -77.1328 350° North 367 422 15,500 -942 Descending Washington Center
Sun 12:43:49 PM 38.4394 -77.0708 31° Northeast 343 395 14,100 -1,750 Descending Washington Center
Sun 12:44:48 PM 38.5156 -76.9794 43° Northeast 337 388 12,000 -1,500 Descending Washington Center
Sun 12:45:49 PM 38.5875 -76.8906 44° Northeast 342 394 11,100 -942 Descending Washington Center
Sun 12:46:49 PM 38.6569 -76.8092 42° Northeast 347 399 10,100 -1,050 Descending Washington Center
Sun 12:47:49 PM 38.7142 -76.7303 47° Northeast 319 367 9,000 -1,271 Descending Washington Center
Sun 12:48:47 PM 38.7667 -76.6167 59° Northeast 303 349 7,600 -1,475 Descending Potomac TRACON
Sun 12:49:47 PM 38.8000 -76.5333 63° Northeast 296 341 6,100 -1,000 Descending Potomac TRACON
Sun 12:50:41 PM 38.8667 -76.5333 360° North 228 262 5,700 -684 Descending Potomac TRACON
Sun 12:51:41 PM 38.9167 -76.5500 345° North 221 254 4,800 -843 Descending Potomac TRACON
Sun 12:52:42 PM 38.9833 -76.5667 349° North 220 253 4,000 -942 Descending Potomac TRACON
Sun 12:53:42 PM 39.0333 -76.5833 345° North 207 238 2,900 -1,105 Descending Potomac TRACON
Sun 12:54:36 PM 39.0833 -76.6000 345° North 185 213 1,900 -947 Descending Potomac TRACON
Sun 12:55:36 PM 39.1333 -76.6333 333° Northwest 146 168 1,100 -750 Descending Potomac TRACON
Sun 12:56:36 PM 39.1500 -76.6500 322° Northwest 130 150 400 -700 Descending Potomac TRACON
Sun 12:58:00 PM 39.1667 -76.6667 339° North  Level FlightAware Approximate
Sun 01:05:00 PM 39.1754 -76.6683 339° North  Level Estimated
Sun 01:06:00 PM 39.1754 -76.6683 339° North  Level Estimated
Sun 01:07:00 PM 39.1754 -76.6683 339° North  Level Estimated
Sun 01:08:00 PM 39.1754 -76.6683 339° North  Level Estimated

Login

Don't have an account? Register now (free) for customized features, flight alerts, and more!